createdAt,value
2019-05-16T00:00:04.011Z,10.03
2019-05-16T00:02:38.767Z,9.90
2019-05-16T00:05:13.220Z,9.10
2019-05-16T00:07:49.394Z,8.90
2019-05-16T00:10:22.625Z,9.97
2019-05-16T00:13:24.202Z,12.63
2019-05-16T00:15:59.211Z,9.40
2019-05-16T00:18:41.192Z,8.57
2019-05-16T00:21:13.432Z,9.47
2019-05-16T00:23:44.416Z,9.77
2019-05-16T00:26:14.953Z,8.63
2019-05-16T00:28:45.654Z,8.07
2019-05-16T00:31:15.580Z,7.60
2019-05-16T00:33:49.406Z,9.53
2019-05-16T00:36:20.572Z,8.07
2019-05-16T00:38:51.073Z,9.10
2019-05-16T00:41:22.801Z,8.40
2019-05-16T00:43:57.698Z,11.60
2019-05-16T00:46:28.582Z,7.60
2019-05-16T00:48:58.885Z,8.37
2019-05-16T00:51:29.692Z,8.97
2019-05-16T00:53:59.259Z,10.43
2019-05-16T00:56:30.533Z,6.83
2019-05-16T00:59:02.184Z,7.40
2019-05-16T01:01:31.950Z,9.13
2019-05-16T01:04:01.548Z,6.80
2019-05-16T01:06:31.611Z,9.17
2019-05-16T01:09:01.232Z,6.43
2019-05-16T01:11:30.787Z,9.00
2019-05-16T01:14:00.491Z,7.43
2019-05-16T01:16:30.245Z,9.23
2019-05-16T01:19:00.012Z,9.20
2019-05-16T01:21:29.862Z,8.27
2019-05-16T01:24:00.306Z,11.10
2019-05-16T01:26:30.238Z,7.73
2019-05-16T01:28:59.800Z,11.20
2019-05-16T01:31:29.455Z,12.37
2019-05-16T01:33:58.987Z,9.30
2019-05-16T01:36:36.864Z,8.93
2019-05-16T01:38:59.691Z,10.07
2019-05-16T01:41:29.283Z,11.43
2019-05-16T01:43:58.897Z,7.83
2019-05-16T01:46:28.647Z,8.27
2019-05-16T01:48:58.186Z,9.13
2019-05-16T01:51:28.819Z,9.13
2019-05-16T01:53:58.468Z,12.60
2019-05-16T01:56:28.185Z,10.60
2019-05-16T01:58:58.261Z,11.00
2019-05-16T02:01:28.844Z,10.80
2019-05-16T02:03:58.761Z,12.30
2019-05-16T02:06:28.822Z,11.17
2019-05-16T02:08:58.505Z,14.67
2019-05-16T02:11:28.527Z,14.33
2019-05-16T02:13:58.586Z,10.07
2019-05-16T02:16:28.380Z,12.50
2019-05-16T02:18:58.868Z,11.43
2019-05-16T02:21:28.777Z,11.37
2019-05-16T02:23:59.584Z,11.63
2019-05-16T02:26:29.699Z,12.97
2019-05-16T02:29:00.889Z,12.57
2019-05-16T02:31:31.488Z,10.40
2019-05-16T02:34:04.661Z,11.43
2019-05-16T02:36:32.444Z,12.00
2019-05-16T02:39:02.306Z,15.43
2019-05-16T02:41:32.167Z,12.27
2019-05-16T02:44:01.928Z,10.47
2019-05-16T02:46:31.511Z,11.77
2019-05-16T02:49:01.311Z,11.10
2019-05-16T02:51:31.509Z,12.07
2019-05-16T02:54:01.626Z,14.07
2019-05-16T02:56:31.916Z,11.47
2019-05-16T02:59:01.946Z,11.37
2019-05-16T03:01:32.277Z,15.67
2019-05-16T03:04:02.050Z,11.37
2019-05-16T03:06:32.633Z,13.23
2019-05-16T03:09:05.343Z,13.33
2019-05-16T03:11:36.908Z,13.97
2019-05-16T03:14:07.165Z,13.93
2019-05-16T03:16:41.749Z,13.30
2019-05-16T03:19:14.283Z,13.17
2019-05-16T03:21:45.665Z,16.33
2019-05-16T03:24:15.546Z,12.90
2019-05-16T03:26:45.599Z,15.57
2019-05-16T03:29:15.407Z,13.67
2019-05-16T03:31:45.725Z,13.27
2019-05-16T03:34:17.122Z,11.57
2019-05-16T03:36:47.513Z,15.83
2019-05-16T03:39:17.308Z,13.23
2019-05-16T03:41:47.239Z,11.40
2019-05-16T03:44:20.801Z,16.10
2019-05-16T03:46:51.889Z,12.67
2019-05-16T03:49:21.206Z,17.87
2019-05-16T03:51:51.666Z,12.07
2019-05-16T03:54:21.441Z,14.63
2019-05-16T03:56:51.490Z,18.77
2019-05-16T03:59:21.686Z,13.07
2019-05-16T04:01:51.641Z,14.07
2019-05-16T04:04:22.008Z,14.27
2019-05-16T04:06:51.780Z,13.93
2019-05-16T04:09:21.589Z,14.83
2019-05-16T04:11:51.346Z,14.83
2019-05-16T04:14:21.599Z,15.40
2019-05-16T04:16:51.945Z,13.33
2019-05-16T04:19:21.611Z,14.87
2019-05-16T04:21:51.386Z,11.07
2019-05-16T04:24:21.862Z,13.57
2019-05-16T04:26:52.043Z,17.07
2019-05-16T04:29:21.903Z,13.67
2019-05-16T04:31:51.715Z,12.13
2019-05-16T04:34:21.677Z,19.03
2019-05-16T04:36:51.874Z,12.40
2019-05-16T04:39:23.802Z,12.47
2019-05-16T04:41:54.371Z,13.03
2019-05-16T04:44:25.437Z,13.37
2019-05-16T04:46:55.347Z,14.03
2019-05-16T04:49:27.721Z,13.87
2019-05-16T04:52:11.658Z,11.53
2019-05-16T04:54:47.144Z,14.80
2019-05-16T04:57:20.618Z,12.33
2019-05-16T04:59:56.767Z,14.83
2019-05-16T05:02:30.647Z,12.37
2019-05-16T05:05:01.313Z,12.87
2019-05-16T05:07:32.127Z,14.33
2019-05-16T05:10:03.915Z,12.97
2019-05-16T05:12:35.295Z,15.30
2019-05-16T05:15:10.406Z,12.37
2019-05-16T05:17:42.694Z,16.53
2019-05-16T05:20:13.846Z,13.87
2019-05-16T05:22:44.208Z,13.70
2019-05-16T05:25:14.288Z,15.47
2019-05-16T05:27:45.267Z,14.27
2019-05-16T05:30:15.710Z,15.30
2019-05-16T05:32:47.005Z,12.37
2019-05-16T05:35:20.524Z,14.73
2019-05-16T05:37:53.097Z,14.50
2019-05-16T05:40:25.121Z,12.03
2019-05-16T05:42:55.988Z,13.70
2019-05-16T05:45:47.389Z,12.90
2019-05-16T05:48:21.587Z,15.57
2019-05-16T05:50:53.793Z,15.70
2019-05-16T05:53:23.853Z,14.53
2019-05-16T05:55:53.689Z,12.87
2019-05-16T05:58:24.912Z,14.07
2019-05-16T06:01:10.870Z,13.40
2019-05-16T06:07:54.738Z,12.47
2019-05-16T06:11:10.288Z,15.97
2019-05-16T06:13:43.608Z,12.47
2019-05-16T06:16:13.519Z,10.43
2019-05-16T06:18:45.558Z,11.30
2019-05-16T06:21:20.310Z,15.27
2019-05-16T06:23:50.889Z,13.40
2019-05-16T06:26:21.175Z,14.57
2019-05-16T06:28:53.482Z,11.40
2019-05-16T06:31:24.521Z,13.37
2019-05-16T06:33:55.020Z,12.47
2019-05-16T06:36:24.563Z,11.83
2019-05-16T06:38:54.275Z,17.03
2019-05-16T06:41:23.735Z,16.63
2019-05-16T06:43:53.275Z,11.73
2019-05-16T06:46:23.050Z,13.60
2019-05-16T06:48:52.721Z,10.90
2019-05-16T06:51:23.660Z,10.70
2019-05-16T06:53:53.296Z,14.37
2019-05-16T06:56:23.320Z,10.93
2019-05-16T06:58:52.793Z,12.13
2019-05-16T07:01:22.385Z,13.93
2019-05-16T07:03:51.947Z,12.23
2019-05-16T07:06:46.027Z,11.77
2019-05-16T07:08:52.627Z,11.17
2019-05-16T07:11:22.040Z,12.77
2019-05-16T07:13:52.084Z,15.43
2019-05-16T07:16:21.590Z,12.47
2019-05-16T07:18:51.154Z,15.60
2019-05-16T07:21:20.625Z,10.53
2019-05-16T07:23:51.210Z,11.77
2019-05-16T07:26:20.804Z,11.33
2019-05-16T07:28:51.626Z,11.20
2019-05-16T07:31:22.571Z,14.77
2019-05-16T07:33:52.305Z,13.93
2019-05-16T07:36:21.806Z,12.37
2019-05-16T07:38:51.340Z,13.63
2019-05-16T07:41:20.724Z,11.20
2019-05-16T07:43:50.664Z,12.67
2019-05-16T07:46:20.897Z,15.40
2019-05-16T07:48:51.792Z,12.97
2019-05-16T07:51:21.754Z,13.03
2019-05-16T07:53:51.116Z,11.70
2019-05-16T07:56:20.767Z,12.87
2019-05-16T07:58:50.871Z,14.83
2019-05-16T08:01:20.763Z,18.00
2019-05-16T08:03:50.916Z,17.50
2019-05-16T08:06:20.985Z,20.53
2019-05-16T08:08:51.253Z,16.07
2019-05-16T08:11:23.699Z,16.83
2019-05-16T08:13:52.259Z,16.10
2019-05-16T08:16:21.889Z,16.43
2019-05-16T08:18:51.280Z,15.63
2019-05-16T08:21:20.741Z,25.17
2019-05-16T08:23:50.352Z,18.57
2019-05-16T08:26:21.990Z,21.47
2019-05-16T08:28:51.478Z,17.13
2019-05-16T08:33:54.942Z,15.97
2019-05-16T08:36:23.559Z,17.93
2019-05-16T08:38:52.986Z,16.90
2019-05-16T08:41:22.468Z,17.80
2019-05-16T08:43:53.399Z,15.30
2019-05-16T08:46:23.365Z,14.97
2019-05-16T08:48:54.150Z,13.20
2019-05-16T08:51:24.165Z,15.90
2019-05-16T08:53:53.648Z,14.37
2019-05-16T08:56:23.108Z,13.77
2019-05-16T09:01:23.807Z,13.13
2019-05-16T09:03:53.407Z,13.93
2019-05-16T09:06:23.277Z,13.67
2019-05-16T09:08:52.879Z,13.50
2019-05-16T09:10:25.130Z,13.60
2019-05-16T09:11:35.586Z,12.87
2019-05-16T09:13:53.471Z,18.90
2019-05-16T09:16:22.896Z,14.17
2019-05-16T09:18:38.454Z,15.97
2019-05-16T09:18:52.421Z,14.33
2019-05-16T09:21:23.916Z,13.50
2019-05-16T09:23:53.375Z,15.63
2019-05-16T09:26:24.004Z,14.27
2019-05-16T09:28:53.426Z,14.87
2019-05-16T09:31:22.942Z,12.50
2019-05-16T09:33:52.464Z,12.20
2019-05-16T09:36:21.908Z,11.80
2019-05-16T09:38:51.573Z,11.17
2019-05-16T09:41:21.081Z,13.17
2019-05-16T09:43:50.761Z,13.90
2019-05-16T09:46:20.231Z,9.80
2019-05-16T09:48:49.737Z,13.57
2019-05-16T09:51:21.327Z,11.53
2019-05-16T09:53:50.328Z,11.53
2019-05-16T09:56:19.719Z,14.70
2019-05-16T09:58:49.137Z,12.10
2019-05-16T10:01:18.675Z,12.20
2019-05-16T10:03:48.143Z,13.93
2019-05-16T10:06:19.242Z,10.43
2019-05-16T10:08:48.778Z,11.93
2019-05-16T10:11:18.416Z,15.47
2019-05-16T10:13:47.827Z,13.30
2019-05-16T10:16:17.259Z,13.93
2019-05-16T10:18:47.601Z,14.67
2019-05-16T10:21:20.473Z,15.50
2019-05-16T10:23:48.327Z,12.70
2019-05-16T10:26:19.516Z,12.33
2019-05-16T10:28:49.079Z,11.33
2019-05-16T10:31:18.557Z,14.67
2019-05-16T10:33:48.024Z,11.50
2019-05-16T10:36:21.422Z,11.97
2019-05-16T10:38:48.734Z,15.43
2019-05-16T10:41:18.202Z,15.53
2019-05-16T10:43:47.717Z,12.17
2019-05-16T10:46:17.862Z,11.53
2019-05-16T10:48:47.491Z,10.77
2019-05-16T10:51:19.490Z,11.30
2019-05-16T10:54:13.146Z,16.50
2019-05-16T10:56:20.344Z,11.57
2019-05-16T10:59:14.763Z,12.20
2019-05-16T11:01:27.347Z,11.50
2019-05-16T11:03:52.423Z,17.00
2019-05-16T11:06:25.599Z,11.57
2019-05-16T11:08:57.133Z,10.17
2019-05-16T11:11:27.348Z,13.90
2019-05-16T11:13:57.149Z,14.83
2019-05-16T11:16:27.483Z,12.87
2019-05-16T11:19:13.765Z,15.30
2019-05-16T11:21:28.400Z,15.20
2019-05-16T11:23:57.907Z,13.60
2019-05-16T11:26:30.098Z,12.77
2019-05-16T11:28:58.683Z,14.90
2019-05-16T11:31:28.176Z,18.53
2019-05-16T11:33:57.771Z,16.37
2019-05-16T11:36:27.497Z,14.37
2019-05-16T11:39:01.424Z,13.40
2019-05-16T11:41:28.404Z,19.97
2019-05-16T11:43:57.888Z,13.63
2019-05-16T11:46:28.283Z,13.87
2019-05-16T11:48:57.719Z,12.17
2019-05-16T11:51:27.367Z,15.97
2019-05-16T11:54:00.066Z,12.00
2019-05-16T11:56:30.737Z,12.00
2019-05-16T11:59:00.490Z,14.43
2019-05-16T12:01:30.005Z,13.67
2019-05-16T12:03:59.586Z,13.37
2019-05-16T12:06:29.268Z,14.57
2019-05-16T12:08:58.908Z,12.47
2019-05-16T12:11:28.447Z,15.20
2019-05-16T12:13:58.077Z,13.87
2019-05-16T12:16:27.749Z,12.47
2019-05-16T12:18:57.292Z,14.23
2019-05-16T12:21:27.434Z,15.70
2019-05-16T12:23:57.296Z,15.67
2019-05-16T12:26:28.153Z,17.63
2019-05-16T12:28:58.088Z,14.43
2019-05-16T12:31:27.490Z,13.57
2019-05-16T12:33:59.732Z,14.47
2019-05-16T12:36:31.323Z,11.50
2019-05-16T12:38:59.494Z,14.13
2019-05-16T12:41:28.978Z,13.80
2019-05-16T12:44:00.258Z,13.27
2019-05-16T12:46:29.935Z,14.33
2019-05-16T12:48:59.523Z,15.00
2019-05-16T12:51:29.028Z,16.40
2019-05-16T12:53:58.684Z,11.40
2019-05-16T12:56:28.114Z,10.90
2019-05-16T12:58:57.659Z,11.73
2019-05-16T13:01:33.998Z,12.57
2019-05-16T13:03:58.403Z,11.40
2019-05-16T13:06:27.895Z,11.67
2019-05-16T13:08:57.519Z,7.23
2019-05-16T13:11:27.163Z,9.23
2019-05-16T13:14:05.537Z,8.43
2019-05-16T13:16:28.193Z,12.83
2019-05-16T13:18:58.082Z,6.57
2019-05-16T13:21:27.760Z,6.63
2019-05-16T13:23:57.672Z,7.20
2019-05-16T13:26:29.773Z,7.00
2019-05-16T13:28:59.327Z,11.60
2019-05-16T13:31:28.982Z,8.70
2019-05-16T13:33:58.860Z,7.17
2019-05-16T13:36:28.415Z,5.23
2019-05-16T13:38:58.224Z,10.70
2019-05-16T13:41:30.248Z,6.53
2019-05-16T13:44:12.874Z,6.20
2019-05-16T13:46:52.486Z,7.60
2019-05-16T13:49:22.417Z,10.50
2019-05-16T13:51:52.797Z,10.47
2019-05-16T13:54:22.747Z,5.90
2019-05-16T13:59:53.588Z,10.87
2019-05-16T14:02:26.709Z,6.23
2019-05-16T14:04:56.988Z,6.70
2019-05-16T14:07:39.987Z,7.40
2019-05-16T14:10:12.010Z,6.20
2019-05-16T14:12:41.591Z,8.63
2019-05-16T14:15:12.653Z,7.53
2019-05-16T14:17:42.115Z,7.60
2019-05-16T14:20:17.651Z,11.33
2019-05-16T14:22:57.342Z,6.97
2019-05-16T14:25:27.265Z,11.73
2019-05-16T14:27:56.977Z,8.20
2019-05-16T14:30:28.528Z,8.67
2019-05-16T14:33:01.146Z,11.30
2019-05-16T14:35:29.795Z,10.20
2019-05-16T14:38:00.844Z,8.37
2019-05-16T14:40:34.033Z,7.57
2019-05-16T14:43:03.830Z,7.93
2019-05-16T14:45:33.543Z,8.93
2019-05-16T14:48:03.182Z,15.30
2019-05-16T14:50:32.952Z,9.80
2019-05-16T14:53:02.581Z,11.30
2019-05-16T14:55:32.280Z,11.07
2019-05-16T14:58:01.997Z,14.23
2019-05-16T15:00:31.584Z,10.37
2019-05-16T15:03:01.100Z,9.97
2019-05-16T15:05:30.682Z,8.27
2019-05-16T15:08:00.707Z,8.13
2019-05-16T15:10:30.174Z,7.07
2019-05-16T15:13:35.057Z,16.97
2019-05-16T15:16:04.682Z,8.73
2019-05-16T15:18:34.697Z,12.93
2019-05-16T15:21:07.973Z,9.73
2019-05-16T15:23:35.901Z,11.57
2019-05-16T15:26:09.034Z,10.37
2019-05-16T15:28:37.751Z,12.40
2019-05-16T15:31:07.468Z,11.60
2019-05-16T15:33:37.885Z,11.07
2019-05-16T15:36:08.569Z,9.40
2019-05-16T15:38:38.569Z,8.07
2019-05-16T15:41:08.688Z,13.53
2019-05-16T15:43:38.484Z,9.97
2019-05-16T15:46:08.721Z,8.07
2019-05-16T15:48:38.282Z,10.27
2019-05-16T15:51:09.023Z,12.70
2019-05-16T15:53:44.764Z,7.83
2019-05-16T15:56:37.419Z,8.07
2019-05-16T15:59:09.758Z,10.80
2019-05-16T16:01:38.096Z,8.07
2019-05-16T16:04:07.509Z,7.63
2019-05-16T16:06:37.997Z,6.20
2019-05-16T16:09:10.107Z,7.43
2019-05-16T16:11:39.759Z,8.20
2019-05-16T16:14:09.355Z,7.13
2019-05-16T16:16:38.896Z,8.40
2019-05-16T16:19:08.385Z,7.80
2019-05-16T16:21:38.207Z,7.30
2019-05-16T16:24:09.155Z,7.03
2019-05-16T16:26:41.015Z,7.93
2019-05-16T16:29:10.446Z,8.67
2019-05-16T16:31:39.909Z,8.90
2019-05-16T16:34:09.300Z,5.87
2019-05-16T16:36:38.756Z,6.77
2019-05-16T16:39:08.768Z,9.97
2019-05-16T16:41:38.220Z,9.70
2019-05-16T16:44:07.860Z,8.57
2019-05-16T16:46:37.664Z,8.10
2019-05-16T16:49:07.621Z,12.43
2019-05-16T16:51:37.672Z,9.87
2019-05-16T16:54:07.639Z,10.27
2019-05-16T16:56:37.396Z,10.90
2019-05-16T16:59:06.896Z,8.97
2019-05-16T17:01:37.386Z,8.00
2019-05-16T17:04:07.209Z,10.50
2019-05-16T17:06:37.618Z,10.30
2019-05-16T17:09:07.873Z,9.40
2019-05-16T17:11:37.416Z,10.07
2019-05-16T17:14:07.058Z,11.93
2019-05-16T17:16:37.746Z,8.03
2019-05-16T17:19:07.850Z,9.87
2019-05-16T17:21:37.352Z,10.73
2019-05-16T17:24:06.845Z,9.47
2019-05-16T17:26:37.867Z,10.33
2019-05-16T17:29:07.919Z,10.13
2019-05-16T17:31:37.563Z,10.27
2019-05-16T17:34:08.418Z,9.80
2019-05-16T17:36:38.034Z,12.40
2019-05-16T17:39:07.696Z,10.73
2019-05-16T17:41:37.145Z,10.47
2019-05-16T17:44:06.952Z,12.23
2019-05-16T17:46:40.633Z,9.23
2019-05-16T17:49:08.086Z,12.27
2019-05-16T17:51:37.629Z,10.63
2019-05-16T17:54:07.172Z,11.17
2019-05-16T17:56:37.061Z,9.07
2019-05-16T17:59:07.321Z,15.87
2019-05-16T18:01:37.239Z,7.97
2019-05-16T18:04:06.732Z,10.33
2019-05-16T18:06:37.087Z,12.90
2019-05-16T18:09:08.405Z,11.50
2019-05-16T18:11:39.688Z,11.60
2019-05-16T18:14:17.162Z,12.13
2019-05-16T18:16:53.706Z,10.87
2019-05-16T18:19:20.802Z,15.40
2019-05-16T18:21:50.375Z,10.23
2019-05-16T18:24:19.883Z,11.43
2019-05-16T18:26:50.513Z,8.70
2019-05-16T18:29:20.119Z,9.73
2019-05-16T18:31:49.546Z,10.47
2019-05-16T18:34:19.092Z,12.47
2019-05-16T18:36:48.573Z,8.30
2019-05-16T18:39:17.991Z,8.20
2019-05-16T18:41:47.626Z,9.83
2019-05-16T18:44:17.339Z,8.17
2019-05-16T18:46:47.748Z,7.27
2019-05-16T18:49:17.135Z,8.00
2019-05-16T18:51:46.694Z,8.90
2019-05-16T18:54:17.259Z,8.63
2019-05-16T18:56:47.475Z,10.70
2019-05-16T18:59:17.037Z,7.63
2019-05-16T19:01:47.033Z,8.77
2019-05-16T19:04:17.591Z,7.27
2019-05-16T19:06:47.353Z,6.80
2019-05-16T19:09:16.867Z,7.37
2019-05-16T19:11:46.230Z,7.80
2019-05-16T19:14:16.919Z,8.43
2019-05-16T19:16:49.018Z,6.20
2019-05-16T19:19:18.555Z,7.13
2019-05-16T19:21:48.318Z,6.90
2019-05-16T19:24:17.729Z,9.17
2019-05-16T19:26:47.266Z,9.97
2019-05-16T19:29:17.400Z,5.50
2019-05-16T19:31:49.914Z,6.57
2019-05-16T19:34:18.045Z,7.20
2019-05-16T19:36:47.951Z,6.67
2019-05-16T19:39:17.652Z,8.47
2019-05-16T19:41:48.209Z,6.57
2019-05-16T19:44:17.583Z,9.10
2019-05-16T19:46:47.085Z,6.53
2019-05-16T19:49:16.431Z,7.93
2019-05-16T19:51:48.946Z,7.13
2019-05-16T19:54:17.340Z,6.47
2019-05-16T19:56:47.038Z,7.40
2019-05-16T19:59:16.894Z,7.83
2019-05-16T20:01:46.589Z,5.97
2019-05-16T20:04:18.311Z,7.87
2019-05-16T20:06:47.582Z,6.30
2019-05-16T20:09:17.253Z,19.23
2019-05-16T20:11:47.614Z,41.37
2019-05-16T20:14:19.658Z,18.13
2019-05-16T20:16:48.250Z,6.30
2019-05-16T20:19:17.788Z,5.77
2019-05-16T20:21:47.674Z,7.80
2019-05-16T20:24:17.172Z,15.37
2019-05-16T20:26:46.637Z,12.70
2019-05-16T20:29:17.116Z,11.20
2019-05-16T20:31:47.465Z,11.17
2019-05-16T20:34:17.765Z,14.27
2019-05-16T20:36:47.549Z,21.93
2019-05-16T20:39:17.382Z,10.13
2019-05-16T20:41:47.484Z,16.67
2019-05-16T20:44:17.566Z,8.60
2019-05-16T20:46:49.692Z,8.63
2019-05-16T20:49:18.172Z,7.87
2019-05-16T20:51:50.005Z,8.87
2019-05-16T20:54:18.807Z,8.73
2019-05-16T20:56:49.428Z,8.87
2019-05-16T20:59:19.168Z,7.07
2019-05-16T21:01:49.237Z,8.90
2019-05-16T21:04:19.202Z,8.07
2019-05-16T21:07:00.207Z,9.17
2019-05-16T21:09:20.009Z,11.27
2019-05-16T21:11:50.124Z,8.47
2019-05-16T21:14:19.675Z,8.80
2019-05-16T21:16:49.644Z,8.30
2019-05-16T21:19:19.447Z,15.57
2019-05-16T21:21:48.957Z,15.97
2019-05-16T21:24:18.512Z,8.20
2019-05-16T21:26:47.924Z,8.17
2019-05-16T21:29:19.630Z,9.07
2019-05-16T21:31:48.542Z,8.30
2019-05-16T21:34:19.219Z,10.07
2019-05-16T21:36:48.741Z,6.57
2019-05-16T21:39:18.292Z,8.23
2019-05-16T21:41:47.885Z,8.43
2019-05-16T21:44:17.371Z,8.27
2019-05-16T21:46:47.080Z,11.60
2019-05-16T21:49:19.662Z,11.17
2019-05-16T21:51:48.132Z,12.60
2019-05-16T21:54:17.633Z,9.67
2019-05-16T21:56:47.027Z,13.27
2019-05-16T21:59:16.439Z,11.43
2019-05-16T22:01:47.307Z,9.57
2019-05-16T22:04:17.146Z,11.67
2019-05-16T22:06:47.486Z,11.53
2019-05-16T22:09:17.101Z,10.03
2019-05-16T22:11:46.672Z,8.30
2019-05-16T22:14:17.587Z,15.20
2019-05-16T22:16:47.032Z,19.67
2019-05-16T22:19:16.792Z,13.83
2019-05-16T22:21:46.240Z,11.33
2019-05-16T22:24:17.190Z,13.33
2019-05-16T22:26:46.998Z,13.57
2019-05-16T22:29:17.673Z,25.10
2019-05-16T22:31:47.287Z,20.67
2019-05-16T22:34:17.100Z,15.37
2019-05-16T22:36:49.241Z,16.43
2019-05-16T22:39:18.116Z,14.13
2019-05-16T22:41:47.874Z,12.20
2019-05-16T22:44:17.880Z,15.33
2019-05-16T22:46:47.405Z,20.37
2019-05-16T22:49:17.216Z,33.80
2019-05-16T22:51:46.685Z,37.03
2019-05-16T22:54:17.178Z,27.67
2019-05-16T22:56:46.905Z,21.83
2019-05-16T22:59:16.697Z,13.40
2019-05-16T23:01:46.310Z,8.07
2019-05-16T23:04:16.787Z,10.00
2019-05-16T23:06:46.304Z,10.80
2019-05-16T23:09:16.407Z,10.00
2019-05-16T23:11:45.942Z,8.37
2019-05-16T23:14:17.101Z,8.70
2019-05-16T23:16:46.862Z,10.20
2019-05-16T23:19:17.130Z,11.60
2019-05-16T23:21:47.500Z,10.03
2019-05-16T23:24:17.486Z,9.37
2019-05-16T23:26:47.107Z,11.43
2019-05-16T23:29:17.141Z,10.87
2019-05-16T23:31:47.287Z,8.87
2019-05-16T23:34:18.748Z,7.83
2019-05-16T23:36:48.439Z,7.27
2019-05-16T23:39:17.895Z,5.53
2019-05-16T23:41:47.558Z,5.63
2019-05-16T23:44:17.057Z,4.20
2019-05-16T23:46:47.082Z,5.03
2019-05-16T23:49:17.199Z,4.70
2019-05-16T23:51:47.337Z,2.67
2019-05-16T23:54:17.408Z,2.83
2019-05-16T23:56:47.056Z,3.97
2019-05-16T23:59:17.156Z,4.47
